createdAt,value
2023-02-24T00:00:55.463Z,3.40
2023-02-24T00:03:25.170Z,3.30
2023-02-24T00:05:54.745Z,2.90
2023-02-24T00:08:23.739Z,3.00
2023-02-24T00:10:57.398Z,2.53
2023-02-24T00:13:26.784Z,2.80
2023-02-24T00:16:03.637Z,2.73
2023-02-24T00:18:33.982Z,2.97
2023-02-24T00:21:08.429Z,2.60
2023-02-24T00:23:38.749Z,2.80
2023-02-24T00:26:10.668Z,2.60
2023-02-24T00:28:44.672Z,2.70
2023-02-24T00:31:19.674Z,2.77
2023-02-24T00:33:56.798Z,3.07
2023-02-24T00:36:30.180Z,2.87
2023-02-24T00:39:06.054Z,2.80
2023-02-24T00:41:45.912Z,2.70
2023-02-24T00:44:16.627Z,2.97
2023-02-24T00:46:57.898Z,2.87
2023-02-24T00:49:26.306Z,2.83
2023-02-24T00:51:54.701Z,3.10
2023-02-24T00:54:27.255Z,3.40
2023-02-24T00:56:57.348Z,2.93
2023-02-24T00:59:26.126Z,2.93
2023-02-24T01:01:54.863Z,3.60
2023-02-24T01:04:23.674Z,3.57
2023-02-24T01:07:00.340Z,3.40
2023-02-24T01:09:31.308Z,3.80
2023-02-24T01:12:17.343Z,3.27
2023-02-24T01:14:47.687Z,3.07
2023-02-24T01:17:18.222Z,3.00
2023-02-24T01:19:49.067Z,3.43
2023-02-24T01:22:18.784Z,3.93
2023-02-24T01:24:46.810Z,4.33
2023-02-24T01:27:19.445Z,3.93
2023-02-24T01:29:48.193Z,4.63
2023-02-24T01:32:18.994Z,4.77
2023-02-24T01:34:48.011Z,3.70
2023-02-24T01:37:16.915Z,4.07
2023-02-24T01:39:45.257Z,3.93
2023-02-24T01:42:19.538Z,3.77
2023-02-24T01:45:16.488Z,4.43
2023-02-24T01:47:47.292Z,4.67
2023-02-24T01:50:17.672Z,4.00
2023-02-24T01:52:48.385Z,4.00
2023-02-24T01:55:22.323Z,3.47
2023-02-24T01:57:53.438Z,3.80
2023-02-24T02:00:38.623Z,3.93
2023-02-24T02:03:12.173Z,3.80
2023-02-24T02:05:42.499Z,4.03
2023-02-24T02:08:12.905Z,3.90
2023-02-24T02:10:44.194Z,3.57
2023-02-24T02:13:15.013Z,3.93
2023-02-24T02:15:56.699Z,3.60
2023-02-24T02:18:38.291Z,4.33
2023-02-24T02:22:00.188Z,4.40
2023-02-24T02:24:51.349Z,4.10
2023-02-24T02:27:51.257Z,4.30
2023-02-24T02:30:55.573Z,4.50
2023-02-24T02:33:56.459Z,4.37
2023-02-24T02:36:32.985Z,4.57
2023-02-24T02:39:11.920Z,4.53
2023-02-24T02:41:50.862Z,4.83
2023-02-24T02:44:25.018Z,4.40
2023-02-24T02:47:00.465Z,4.80
2023-02-24T02:49:33.769Z,4.73
2023-02-24T02:52:13.835Z,4.90
2023-02-24T02:54:49.517Z,4.53
2023-02-24T02:57:21.503Z,5.23
2023-02-24T02:59:53.929Z,5.53
2023-02-24T03:02:28.403Z,4.90
2023-02-24T03:04:59.982Z,4.70
2023-02-24T03:07:32.378Z,5.30
2023-02-24T03:10:09.578Z,5.10
2023-02-24T03:12:41.066Z,4.37
2023-02-24T03:15:13.387Z,4.80
2023-02-24T03:17:45.363Z,5.77
2023-02-24T03:20:22.408Z,4.30
2023-02-24T03:22:57.713Z,4.40
2023-02-24T03:25:30.174Z,4.47
2023-02-24T03:28:05.520Z,5.00
2023-02-24T03:30:41.516Z,5.33
2023-02-24T03:33:16.713Z,5.90
2023-02-24T03:35:44.758Z,6.00
2023-02-24T03:38:15.001Z,5.57
2023-02-24T03:40:43.535Z,5.30
2023-02-24T03:43:18.012Z,7.00
2023-02-24T03:45:47.590Z,6.13
2023-02-24T03:48:17.340Z,7.77
2023-02-24T03:50:45.846Z,6.00
2023-02-24T03:53:32.156Z,6.70
2023-02-24T03:56:10.949Z,5.77
2023-02-24T03:58:47.888Z,7.60
2023-02-24T04:01:22.500Z,7.10
2023-02-24T04:03:57.962Z,5.97
2023-02-24T04:06:35.091Z,6.53
2023-02-24T04:09:10.370Z,6.63
2023-02-24T04:11:45.950Z,5.93
2023-02-24T04:14:20.335Z,7.40
2023-02-24T04:16:57.072Z,5.90
2023-02-24T04:19:29.167Z,6.53
2023-02-24T04:21:57.836Z,5.70
2023-02-24T04:24:30.512Z,5.47
2023-02-24T04:27:01.122Z,5.07
2023-02-24T04:29:35.658Z,6.23
2023-02-24T04:32:07.162Z,5.57
2023-02-24T04:34:35.380Z,6.40
2023-02-24T04:37:03.566Z,5.97
2023-02-24T04:39:33.699Z,6.47
2023-02-24T04:42:02.212Z,6.53
2023-02-24T04:44:30.184Z,6.47
2023-02-24T04:46:58.209Z,6.83
2023-02-24T04:49:26.966Z,6.17
2023-02-24T04:51:57.096Z,6.70
2023-02-24T04:54:25.166Z,6.53
2023-02-24T04:56:54.505Z,6.70
2023-02-24T04:59:24.883Z,6.73
2023-02-24T05:01:54.977Z,6.40
2023-02-24T05:04:23.930Z,6.00
2023-02-24T05:06:51.957Z,6.70
2023-02-24T05:09:20.217Z,6.63
2023-02-24T05:11:50.780Z,6.73
2023-02-24T05:14:22.891Z,7.30
2023-02-24T05:16:52.009Z,7.13
2023-02-24T05:19:39.037Z,7.00
2023-02-24T05:22:09.861Z,6.77
2023-02-24T05:24:38.607Z,7.53
2023-02-24T05:27:07.032Z,8.20
2023-02-24T05:29:36.850Z,7.87
2023-02-24T05:32:05.747Z,7.40
2023-02-24T05:34:34.499Z,7.50
2023-02-24T05:37:07.486Z,7.33
2023-02-24T05:39:35.461Z,7.53
2023-02-24T05:42:06.666Z,6.17
2023-02-24T05:44:36.631Z,7.50
2023-02-24T05:47:05.596Z,7.40
2023-02-24T05:49:35.683Z,7.23
2023-02-24T05:52:08.984Z,7.80
2023-02-24T05:54:40.034Z,7.10
2023-02-24T05:57:11.978Z,6.70
2023-02-24T05:59:42.382Z,6.07
2023-02-24T06:02:12.346Z,6.90
2023-02-24T06:04:50.617Z,6.50
2023-02-24T06:07:22.090Z,5.57
2023-02-24T06:09:53.500Z,4.90
2023-02-24T06:12:22.722Z,5.70
2023-02-24T06:14:52.983Z,5.93
2023-02-24T06:17:22.876Z,5.10
2023-02-24T06:19:52.643Z,5.40
2023-02-24T06:22:22.743Z,5.83
2023-02-24T06:24:54.030Z,4.70
2023-02-24T06:27:24.750Z,5.43
2023-02-24T06:29:56.640Z,5.53
2023-02-24T06:32:26.912Z,5.20
2023-02-24T06:34:57.123Z,4.83
2023-02-24T06:37:25.259Z,5.07
2023-02-24T06:39:53.257Z,6.50
2023-02-24T06:42:21.302Z,5.73
2023-02-24T06:44:50.304Z,4.03
2023-02-24T06:47:19.780Z,4.63
2023-02-24T06:49:48.196Z,4.40
2023-02-24T06:52:19.022Z,4.47
2023-02-24T06:54:52.421Z,4.33
2023-02-24T06:57:20.702Z,4.80
2023-02-24T06:59:48.960Z,5.13
2023-02-24T07:02:18.504Z,5.77
2023-02-24T07:04:48.405Z,5.07
2023-02-24T07:07:17.356Z,4.77
2023-02-24T07:09:45.670Z,4.67
2023-02-24T07:12:15.532Z,4.47
2023-02-24T07:14:44.008Z,4.20
2023-02-24T07:17:14.679Z,3.73
2023-02-24T07:19:42.680Z,4.13
2023-02-24T07:22:14.630Z,6.20
2023-02-24T07:24:46.257Z,5.40
2023-02-24T07:27:22.407Z,4.47
2023-02-24T07:29:53.233Z,4.90
2023-02-24T07:32:23.355Z,5.57
2023-02-24T07:34:51.450Z,5.03
2023-02-24T07:37:21.086Z,6.20
2023-02-24T07:39:49.307Z,5.17
2023-02-24T07:42:17.266Z,5.90
2023-02-24T07:44:46.570Z,5.37
2023-02-24T07:47:15.907Z,5.70
2023-02-24T07:49:45.199Z,4.93
2023-02-24T07:52:13.222Z,4.80
2023-02-24T07:54:43.151Z,5.20
2023-02-24T07:57:13.714Z,4.97
2023-02-24T08:00:18.965Z,4.50
2023-02-24T08:02:48.927Z,4.60
2023-02-24T08:05:17.992Z,4.60
2023-02-24T08:07:49.781Z,4.60
2023-02-24T08:10:26.214Z,4.00
2023-02-24T08:12:55.884Z,4.27
2023-02-24T08:15:26.049Z,4.17
2023-02-24T08:17:59.542Z,4.10
2023-02-24T08:20:29.914Z,4.63
2023-02-24T08:22:58.284Z,4.27
2023-02-24T08:25:36.501Z,4.77
2023-02-24T08:28:09.378Z,4.50
2023-02-24T08:30:45.124Z,5.57
2023-02-24T08:33:17.419Z,5.00
2023-02-24T08:35:45.754Z,5.63
2023-02-24T08:38:16.266Z,4.80
2023-02-24T08:40:51.607Z,5.80
2023-02-24T08:43:33.019Z,6.47
2023-02-24T08:46:04.793Z,5.77
2023-02-24T08:48:38.136Z,6.53
2023-02-24T08:51:12.372Z,5.93
2023-02-24T08:53:41.949Z,5.60
2023-02-24T08:56:13.419Z,5.80
2023-02-24T08:58:47.132Z,5.70
2023-02-24T09:01:24.388Z,5.37
2023-02-24T09:03:56.324Z,5.47
2023-02-24T09:06:35.142Z,5.47
2023-02-24T09:09:18.565Z,6.03
2023-02-24T09:11:49.631Z,6.63
2023-02-24T09:14:27.953Z,6.33
2023-02-24T09:17:05.385Z,6.40
2023-02-24T09:19:55.320Z,5.87
2023-02-24T09:22:57.297Z,5.70
2023-02-24T09:25:40.450Z,5.87
2023-02-24T09:28:17.378Z,5.17
2023-02-24T09:30:57.201Z,6.17
2023-02-24T09:33:27.582Z,6.30
2023-02-24T09:36:09.695Z,6.37
2023-02-24T09:39:09.786Z,5.73
2023-02-24T09:41:56.499Z,5.77
2023-02-24T09:44:37.476Z,6.00
2023-02-24T09:47:14.025Z,6.35
2023-02-24T09:49:50.626Z,5.80
2023-02-24T09:52:19.825Z,5.85
2023-02-24T09:55:08.150Z,5.35
2023-02-24T09:58:03.535Z,6.05
2023-02-24T10:00:43.962Z,6.05
2023-02-24T10:03:41.450Z,6.63
2023-02-24T10:06:20.844Z,6.60
2023-02-24T10:08:55.004Z,6.43
2023-02-24T10:11:33.818Z,6.40
2023-02-24T10:14:05.600Z,6.45
2023-02-24T10:16:46.295Z,5.93
2023-02-24T10:19:25.379Z,6.43
2023-02-24T10:22:04.029Z,6.30
2023-02-24T10:24:38.290Z,6.25
2023-02-24T10:27:17.171Z,6.63
2023-02-24T10:30:01.061Z,6.13
2023-02-24T10:32:37.653Z,5.82
2023-02-24T10:35:07.134Z,5.82
2023-02-24T10:37:35.152Z,6.82
2023-02-24T10:40:09.878Z,7.13
2023-02-24T10:42:45.708Z,6.53
2023-02-24T10:45:18.495Z,7.55
2023-02-24T10:47:56.567Z,6.60
2023-02-24T10:50:29.779Z,6.55
2023-02-24T10:53:26.528Z,7.15
2023-02-24T10:56:15.498Z,8.15
2023-02-24T10:58:56.774Z,9.30
2023-02-24T11:01:40.835Z,8.43
2023-02-24T11:04:33.607Z,7.53
2023-02-24T11:07:09.759Z,7.22
2023-02-24T11:09:44.113Z,7.07
2023-02-24T11:12:34.710Z,8.02
2023-02-24T11:15:23.402Z,7.43
2023-02-24T11:17:56.984Z,7.20
2023-02-24T11:20:47.479Z,7.82
2023-02-24T11:23:20.224Z,7.82
2023-02-24T11:25:50.686Z,7.95
2023-02-24T11:28:41.919Z,7.82
2023-02-24T11:31:21.812Z,7.43
2023-02-24T11:33:59.699Z,7.70
2023-02-24T11:36:34.864Z,7.03
2023-02-24T11:39:20.064Z,7.55
2023-02-24T11:41:53.147Z,8.07
2023-02-24T11:44:25.844Z,7.82
2023-02-24T11:46:57.632Z,8.07
2023-02-24T11:49:32.302Z,8.10
2023-02-24T11:52:04.986Z,8.32
2023-02-24T11:54:37.661Z,7.65
2023-02-24T11:57:11.982Z,7.63
2023-02-24T11:59:45.318Z,8.25
2023-02-24T12:02:21.102Z,8.10
2023-02-24T12:04:57.688Z,8.07
2023-02-24T12:07:33.836Z,7.43
2023-02-24T12:10:16.512Z,8.95
2023-02-24T12:12:49.540Z,8.55
2023-02-24T12:15:24.922Z,8.30
2023-02-24T12:18:05.549Z,7.70
2023-02-24T12:20:38.385Z,8.27
2023-02-24T12:23:17.946Z,8.98
2023-02-24T12:26:08.798Z,7.90
2023-02-24T12:29:04.527Z,8.95
2023-02-24T12:31:43.373Z,8.52
2023-02-24T12:34:15.661Z,7.40
2023-02-24T12:37:20.100Z,8.45
2023-02-24T12:39:59.186Z,8.60
2023-02-24T12:42:34.837Z,7.43
2023-02-24T12:45:11.230Z,8.57
2023-02-24T12:47:47.193Z,8.90
2023-02-24T12:50:27.284Z,8.85
2023-02-24T12:53:02.056Z,8.40
2023-02-24T12:55:38.114Z,8.30
2023-02-24T12:58:13.269Z,8.18
2023-02-24T13:00:59.844Z,8.85
2023-02-24T13:03:55.175Z,9.02
2023-02-24T13:06:34.097Z,7.72
2023-02-24T13:09:09.598Z,7.82
2023-02-24T13:11:47.186Z,8.15
2023-02-24T13:14:21.684Z,8.55
2023-02-24T13:16:49.703Z,7.78
2023-02-24T13:22:07.002Z,7.78
2023-02-24T13:24:35.837Z,8.95
2023-02-24T13:27:19.133Z,8.38
2023-02-24T13:29:48.464Z,9.15
2023-02-24T13:32:30.159Z,8.85
2023-02-24T13:34:59.463Z,9.10
2023-02-24T13:37:34.780Z,9.20
2023-02-24T13:40:22.298Z,8.68
2023-02-24T13:42:59.865Z,7.82
2023-02-24T13:45:29.968Z,7.50
2023-02-24T13:48:26.771Z,8.02
2023-02-24T13:51:09.737Z,7.97
2023-02-24T13:53:58.838Z,7.95
2023-02-24T13:56:36.878Z,7.70
2023-02-24T13:59:18.817Z,8.98
2023-02-24T14:01:50.444Z,6.68
2023-02-24T14:04:22.058Z,6.55
2023-02-24T14:06:53.602Z,6.75
2023-02-24T14:09:28.046Z,7.60
2023-02-24T14:12:00.115Z,7.28
2023-02-24T14:14:29.196Z,6.93
2023-02-24T14:16:57.203Z,6.57
2023-02-24T14:19:27.010Z,6.60
2023-02-24T14:21:56.806Z,6.38
2023-02-24T14:24:28.544Z,6.72
2023-02-24T14:26:59.640Z,8.10
2023-02-24T14:29:31.947Z,6.80
2023-02-24T14:32:01.346Z,7.57
2023-02-24T14:34:33.837Z,6.72
2023-02-24T14:37:04.728Z,6.13
2023-02-24T14:39:35.240Z,7.07
2023-02-24T14:42:13.683Z,7.85
2023-02-24T14:44:43.854Z,8.65
2023-02-24T14:47:14.396Z,7.90
2023-02-24T14:49:42.836Z,8.43
2023-02-24T14:52:16.929Z,7.75
2023-02-24T14:54:49.429Z,8.40
2023-02-24T14:57:21.330Z,8.20
2023-02-24T14:59:53.485Z,9.35
2023-02-24T15:02:25.746Z,8.50
2023-02-24T15:04:56.270Z,8.77
2023-02-24T15:07:27.833Z,8.43
2023-02-24T15:09:58.467Z,8.82
2023-02-24T15:12:31.457Z,8.38
2023-02-24T15:15:03.657Z,9.00
2023-02-24T15:17:32.522Z,8.65
2023-02-24T15:20:00.526Z,9.65
2023-02-24T15:22:30.891Z,8.65
2023-02-24T15:25:19.342Z,9.23
2023-02-24T15:27:52.721Z,8.60
2023-02-24T15:30:31.700Z,9.77
2023-02-24T15:33:05.177Z,8.55
2023-02-24T15:35:34.637Z,9.70
2023-02-24T15:38:03.725Z,9.23
2023-02-24T15:40:33.271Z,9.25
2023-02-24T15:43:09.867Z,9.45
2023-02-24T15:45:39.680Z,10.20
2023-02-24T15:48:21.726Z,10.20
2023-02-24T15:50:51.070Z,8.82
2023-02-24T15:53:19.110Z,9.05
2023-02-24T15:55:48.525Z,8.90
2023-02-24T15:58:18.651Z,8.60
2023-02-24T16:00:47.106Z,9.55
2023-02-24T16:03:15.078Z,9.15
2023-02-24T16:05:43.146Z,8.63
2023-02-24T16:08:12.773Z,8.73
2023-02-24T16:10:41.354Z,8.68
2023-02-24T16:13:19.334Z,8.13
2023-02-24T16:15:48.352Z,9.68
2023-02-24T16:18:22.177Z,9.30
2023-02-24T16:20:54.375Z,8.90
2023-02-24T16:23:23.606Z,9.10
2023-02-24T16:25:55.025Z,9.52
2023-02-24T16:28:24.725Z,9.95
2023-02-24T16:30:53.249Z,9.15
2023-02-24T16:33:24.137Z,9.13
2023-02-24T16:35:53.327Z,9.38
2023-02-24T16:38:26.419Z,9.38
2023-02-24T16:40:55.336Z,9.80
2023-02-24T16:43:25.620Z,11.25
2023-02-24T16:45:56.362Z,11.55
2023-02-24T16:48:27.328Z,10.82
2023-02-24T16:50:55.323Z,10.07
2023-02-24T16:53:25.158Z,11.23
2023-02-24T16:55:53.296Z,11.25
2023-02-24T16:58:23.277Z,11.00
2023-02-24T17:00:57.254Z,11.50
2023-02-24T17:03:27.544Z,9.85
2023-02-24T17:05:56.152Z,10.27
2023-02-24T17:08:24.412Z,11.98
2023-02-24T17:10:52.636Z,9.52
2023-02-24T17:13:22.073Z,9.20
2023-02-24T17:15:55.155Z,7.57
2023-02-24T17:18:23.303Z,10.57
2023-02-24T17:20:51.630Z,10.43
2023-02-24T17:23:19.862Z,9.13
2023-02-24T17:25:51.049Z,4.95
2023-02-24T17:28:19.114Z,5.25
2023-02-24T17:30:47.274Z,3.80
2023-02-24T17:33:16.776Z,4.38
2023-02-24T17:35:46.938Z,3.10
2023-02-24T17:38:15.108Z,2.42
2023-02-24T17:40:47.669Z,3.65
2023-02-24T17:43:16.138Z,3.67
2023-02-24T17:45:45.985Z,3.22
2023-02-24T17:48:16.611Z,2.90
2023-02-24T17:50:45.374Z,3.58
2023-02-24T17:53:13.385Z,4.57
2023-02-24T17:55:55.799Z,3.45
2023-02-24T17:58:27.884Z,3.30
2023-02-24T18:00:55.848Z,3.60
2023-02-24T18:03:25.626Z,3.65
2023-02-24T18:05:59.503Z,3.95
2023-02-24T18:08:27.454Z,4.22
2023-02-24T18:10:55.399Z,4.57
2023-02-24T18:13:23.558Z,4.00
2023-02-24T18:15:51.616Z,4.00
2023-02-24T18:18:19.969Z,3.17
2023-02-24T18:20:49.314Z,3.70
2023-02-24T18:23:17.309Z,4.03
2023-02-24T18:25:45.314Z,4.88
2023-02-24T18:28:13.473Z,3.90
2023-02-24T18:30:41.466Z,4.00
2023-02-24T18:33:09.614Z,4.03
2023-02-24T18:35:38.810Z,5.00
2023-02-24T18:38:08.429Z,3.65
2023-02-24T18:40:36.395Z,3.50
2023-02-24T18:43:04.404Z,3.90
2023-02-24T18:45:32.449Z,4.63
2023-02-24T18:48:04.827Z,3.42
2023-02-24T18:50:34.060Z,5.03
2023-02-24T18:53:02.066Z,3.65
2023-02-24T18:55:31.462Z,4.38
2023-02-24T18:57:59.429Z,4.30
2023-02-24T19:00:27.626Z,4.30
2023-02-24T19:02:55.728Z,4.13
2023-02-24T19:05:24.948Z,3.55
2023-02-24T19:07:54.004Z,3.83
2023-02-24T19:10:22.062Z,3.50
2023-02-24T19:12:52.072Z,4.18
2023-02-24T19:15:22.356Z,4.43
2023-02-24T19:17:50.351Z,3.95
2023-02-24T19:20:19.903Z,4.25
2023-02-24T19:22:50.430Z,3.95
2023-02-24T19:25:19.497Z,4.30
2023-02-24T19:27:48.233Z,3.83
2023-02-24T19:30:18.136Z,3.80
2023-02-24T19:32:46.171Z,4.07
2023-02-24T19:35:14.867Z,4.65
2023-02-24T19:37:42.826Z,4.18
2023-02-24T19:40:12.216Z,8.98
2023-02-24T19:42:40.309Z,5.10
2023-02-24T19:45:09.845Z,4.88
2023-02-24T19:47:42.634Z,4.60
2023-02-24T19:50:12.347Z,3.95
2023-02-24T19:52:40.438Z,4.43
2023-02-24T19:55:10.085Z,4.35
2023-02-24T19:57:38.211Z,4.60
2023-02-24T20:00:11.471Z,5.05
2023-02-24T20:02:40.893Z,3.90
2023-02-24T20:05:12.252Z,3.55
2023-02-24T20:07:40.255Z,4.82
2023-02-24T20:10:08.926Z,4.30
2023-02-24T20:12:37.233Z,3.85
2023-02-24T20:15:05.591Z,4.13
2023-02-24T20:17:35.079Z,4.35
2023-02-24T20:20:04.674Z,5.18
2023-02-24T20:22:32.931Z,5.50
2023-02-24T20:25:00.926Z,7.95
2023-02-24T20:27:28.926Z,7.80
2023-02-24T20:29:57.096Z,6.38
2023-02-24T20:32:25.616Z,5.68
2023-02-24T20:34:53.740Z,7.00
2023-02-24T20:37:23.142Z,5.32
2023-02-24T20:39:52.774Z,5.32
2023-02-24T20:42:20.733Z,5.20
2023-02-24T20:44:48.860Z,4.88
2023-02-24T20:47:19.071Z,5.60
2023-02-24T20:49:47.148Z,4.90
2023-02-24T20:52:15.114Z,5.18
2023-02-24T20:54:45.710Z,4.95
2023-02-24T20:57:13.691Z,6.43
2023-02-24T20:59:47.280Z,5.43
2023-02-24T21:02:19.773Z,6.72
2023-02-24T21:04:47.820Z,5.85
2023-02-24T21:07:15.804Z,6.03
2023-02-24T21:09:45.258Z,6.00
2023-02-24T21:12:13.313Z,5.60
2023-02-24T21:14:43.447Z,5.57
2023-02-24T21:17:11.768Z,5.75
2023-02-24T21:19:40.013Z,4.82
2023-02-24T21:22:08.317Z,5.28
2023-02-24T21:24:36.596Z,5.00
2023-02-24T21:27:06.454Z,5.50
2023-02-24T21:29:34.429Z,6.82
2023-02-24T21:32:03.247Z,6.45
2023-02-24T21:34:31.613Z,6.47
2023-02-24T21:37:01.570Z,8.13
2023-02-24T21:39:29.521Z,5.82
2023-02-24T21:41:57.470Z,5.30
2023-02-24T21:44:26.801Z,5.63
2023-02-24T21:46:55.480Z,5.22
2023-02-24T21:49:23.582Z,6.03
2023-02-24T21:51:51.668Z,6.50
2023-02-24T21:54:19.662Z,5.78
2023-02-24T21:56:47.643Z,5.93
2023-02-24T21:59:15.584Z,6.60
2023-02-24T22:01:47.099Z,6.65
2023-02-24T22:04:18.786Z,5.65
2023-02-24T22:06:46.808Z,3.45
2023-02-24T22:09:19.291Z,4.47
2023-02-24T22:11:48.990Z,4.70
2023-02-24T22:14:17.172Z,4.05
2023-02-24T22:16:46.542Z,4.13
2023-02-24T22:19:14.847Z,4.03
2023-02-24T22:21:43.410Z,3.45
2023-02-24T22:24:14.371Z,3.15
2023-02-24T22:26:42.537Z,0.88
2023-02-24T22:29:10.904Z,1.95
2023-02-24T22:31:39.783Z,2.42
2023-02-24T22:34:09.239Z,1.52
2023-02-24T22:36:38.508Z,1.55
2023-02-24T22:39:08.850Z,1.73
2023-02-24T22:41:37.434Z,1.45
2023-02-24T22:44:06.835Z,0.98
2023-02-24T22:46:36.817Z,0.95
2023-02-24T22:49:05.505Z,0.70
2023-02-24T22:51:34.967Z,0.87
2023-02-24T22:54:03.358Z,1.00
2023-02-24T22:56:32.243Z,1.00
2023-02-24T22:59:01.633Z,0.40
2023-02-24T23:01:31.535Z,1.30
2023-02-24T23:04:01.154Z,1.40
2023-02-24T23:06:29.465Z,1.10
2023-02-24T23:09:00.297Z,3.03
2023-02-24T23:11:30.564Z,2.57
2023-02-24T23:14:03.500Z,2.70
2023-02-24T23:16:35.188Z,2.10
2023-02-24T23:19:05.693Z,1.87
2023-02-24T23:21:37.796Z,2.23
2023-02-24T23:24:10.851Z,1.73
2023-02-24T23:26:41.882Z,2.73
2023-02-24T23:29:10.819Z,3.10
2023-02-24T23:31:39.523Z,2.97
2023-02-24T23:34:07.860Z,2.50
2023-02-24T23:36:37.211Z,3.57
2023-02-24T23:39:07.383Z,2.13
2023-02-24T23:41:36.169Z,2.87
2023-02-24T23:44:04.727Z,3.40
2023-02-24T23:46:33.938Z,3.00
2023-02-24T23:49:02.297Z,2.53
2023-02-24T23:51:45.719Z,2.93
2023-02-24T23:54:17.807Z,3.20
2023-02-24T23:56:46.441Z,3.23
2023-02-24T23:59:14.834Z,2.70
